sensor_id;sensor_type;location;lat;lon;timestamp;temperature;humidity
58582;DHT22;44361;51.476;5.700;2022-07-23T00:00:49;16.00;99.90
58582;DHT22;44361;51.476;5.700;2022-07-23T00:03:15;15.90;99.90
58582;DHT22;44361;51.476;5.700;2022-07-23T00:05:41;15.90;99.90
58582;DHT22;44361;51.476;5.700;2022-07-23T00:08:07;15.90;99.90
58582;DHT22;44361;51.476;5.700;2022-07-23T00:10:33;15.80;99.90
58582;DHT22;44361;51.476;5.700;2022-07-23T00:12:58;15.80;99.90
58582;DHT22;44361;51.476;5.700;2022-07-23T00:15:24;15.80;99.90
58582;DHT22;44361;51.476;5.700;2022-07-23T00:17:50;15.80;99.90
58582;DHT22;44361;51.476;5.700;2022-07-23T00:20:15;15.80;99.90
58582;DHT22;44361;51.476;5.700;2022-07-23T00:22:52;15.70;99.90
58582;DHT22;44361;51.476;5.700;2022-07-23T00:25:19;15.70;99.90
58582;DHT22;44361;51.476;5.700;2022-07-23T00:27:45;15.70;99.90
58582;DHT22;44361;51.476;5.700;2022-07-23T00:30:11;15.60;99.90
58582;DHT22;44361;51.476;5.700;2022-07-23T00:32:48;15.50;99.90
58582;DHT22;44361;51.476;5.700;2022-07-23T00:35:14;15.50;99.90
58582;DHT22;44361;51.476;5.700;2022-07-23T00:37:39;15.40;99.90
58582;DHT22;44361;51.476;5.700;2022-07-23T00:40:06;15.40;99.90
58582;DHT22;44361;51.476;5.700;2022-07-23T00:42:32;15.40;99.90
58582;DHT22;44361;51.476;5.700;2022-07-23T00:44:58;15.30;99.90
58582;DHT22;44361;51.476;5.700;2022-07-23T00:47:23;15.30;99.90
58582;DHT22;44361;51.476;5.700;2022-07-23T00:49:49;15.20;99.90
58582;DHT22;44361;51.476;5.700;2022-07-23T00:52:15;15.20;99.90
58582;DHT22;44361;51.476;5.700;2022-07-23T00:54:41;15.20;99.90
58582;DHT22;44361;51.476;5.700;2022-07-23T00:57:07;15.20;99.90
58582;DHT22;44361;51.476;5.700;2022-07-23T00:59:33;15.20;99.90
58582;DHT22;44361;51.476;5.700;2022-07-23T01:01:59;15.20;99.90
58582;DHT22;44361;51.476;5.700;2022-07-23T01:04:24;15.20;99.90
58582;DHT22;44361;51.476;5.700;2022-07-23T01:06:50;15.20;99.90
58582;DHT22;44361;51.476;5.700;2022-07-23T01:09:17;15.10;99.90
58582;DHT22;44361;51.476;5.700;2022-07-23T01:11:42;15.10;99.90
58582;DHT22;44361;51.476;5.700;2022-07-23T01:14:10;15.00;99.90
58582;DHT22;44361;51.476;5.700;2022-07-23T01:16:36;15.00;99.90
58582;DHT22;44361;51.476;5.700;2022-07-23T01:19:02;14.90;99.90
58582;DHT22;44361;51.476;5.700;2022-07-23T01:21:30;14.90;99.90
58582;DHT22;44361;51.476;5.700;2022-07-23T01:23:56;14.90;99.90
58582;DHT22;44361;51.476;5.700;2022-07-23T01:26:21;14.90;99.90
58582;DHT22;44361;51.476;5.700;2022-07-23T01:28:47;14.90;99.90
58582;DHT22;44361;51.476;5.700;2022-07-23T01:31:12;14.80;99.90
58582;DHT22;44361;51.476;5.700;2022-07-23T01:33:38;14.80;99.90
58582;DHT22;44361;51.476;5.700;2022-07-23T01:36:04;14.80;99.90
58582;DHT22;44361;51.476;5.700;2022-07-23T01:38:29;14.70;99.90
58582;DHT22;44361;51.476;5.700;2022-07-23T01:40:55;14.70;99.90
58582;DHT22;44361;51.476;5.700;2022-07-23T01:43:20;14.70;99.90
58582;DHT22;44361;51.476;5.700;2022-07-23T01:45:46;14.70;99.90
58582;DHT22;44361;51.476;5.700;2022-07-23T01:48:11;14.60;99.90
58582;DHT22;44361;51.476;5.700;2022-07-23T01:50:37;14.60;99.90
58582;DHT22;44361;51.476;5.700;2022-07-23T01:53:03;14.60;99.90
58582;DHT22;44361;51.476;5.700;2022-07-23T01:55:28;14.60;99.90
58582;DHT22;44361;51.476;5.700;2022-07-23T01:57:54;14.60;99.90
58582;DHT22;44361;51.476;5.700;2022-07-23T02:00:19;14.50;99.90
58582;DHT22;44361;51.476;5.700;2022-07-23T02:02:45;14.50;99.90
58582;DHT22;44361;51.476;5.700;2022-07-23T02:05:10;14.50;99.90
58582;DHT22;44361;51.476;5.700;2022-07-23T02:07:36;14.50;99.90
58582;DHT22;44361;51.476;5.700;2022-07-23T02:10:02;14.50;99.90
58582;DHT22;44361;51.476;5.700;2022-07-23T02:12:28;14.40;99.90
58582;DHT22;44361;51.476;5.700;2022-07-23T02:14:53;14.40;99.90
58582;DHT22;44361;51.476;5.700;2022-07-23T02:17:19;14.40;99.90
58582;DHT22;44361;51.476;5.700;2022-07-23T02:19:44;14.40;99.90
58582;DHT22;44361;51.476;5.700;2022-07-23T02:22:10;14.40;99.90
58582;DHT22;44361;51.476;5.700;2022-07-23T02:24:35;14.40;99.90
58582;DHT22;44361;51.476;5.700;2022-07-23T02:27:01;14.40;99.90
58582;DHT22;44361;51.476;5.700;2022-07-23T02:29:26;14.30;99.90
58582;DHT22;44361;51.476;5.700;2022-07-23T02:31:52;14.30;99.90
58582;DHT22;44361;51.476;5.700;2022-07-23T02:34:17;14.20;99.90
58582;DHT22;44361;51.476;5.700;2022-07-23T02:36:43;14.20;99.90
58582;DHT22;44361;51.476;5.700;2022-07-23T02:39:09;14.10;99.90
58582;DHT22;44361;51.476;5.700;2022-07-23T02:41:35;14.10;99.90
58582;DHT22;44361;51.476;5.700;2022-07-23T02:44:01;14.10;99.90
58582;DHT22;44361;51.476;5.700;2022-07-23T02:46:26;14.10;99.90
58582;DHT22;44361;51.476;5.700;2022-07-23T02:48:52;14.10;99.90
58582;DHT22;44361;51.476;5.700;2022-07-23T02:51:17;14.00;99.90
58582;DHT22;44361;51.476;5.700;2022-07-23T02:53:43;14.00;99.90
58582;DHT22;44361;51.476;5.700;2022-07-23T02:56:09;14.00;99.90
58582;DHT22;44361;51.476;5.700;2022-07-23T02:58:34;14.00;99.90
58582;DHT22;44361;51.476;5.700;2022-07-23T03:01:00;14.00;99.90
58582;DHT22;44361;51.476;5.700;2022-07-23T03:03:25;14.00;99.90
58582;DHT22;44361;51.476;5.700;2022-07-23T03:05:51;13.90;99.90
58582;DHT22;44361;51.476;5.700;2022-07-23T03:08:16;13.90;99.90
58582;DHT22;44361;51.476;5.700;2022-07-23T03:10:42;13.90;99.90
58582;DHT22;44361;51.476;5.700;2022-07-23T03:13:08;13.80;99.90
58582;DHT22;44361;51.476;5.700;2022-07-23T03:15:33;13.80;99.90
58582;DHT22;44361;51.476;5.700;2022-07-23T03:17:59;13.80;99.90
58582;DHT22;44361;51.476;5.700;2022-07-23T03:20:24;13.80;99.90
58582;DHT22;44361;51.476;5.700;2022-07-23T03:22:50;13.80;99.90
58582;DHT22;44361;51.476;5.700;2022-07-23T03:25:15;13.70;99.90
58582;DHT22;44361;51.476;5.700;2022-07-23T03:27:41;13.70;99.90
58582;DHT22;44361;51.476;5.700;2022-07-23T03:30:07;13.60;99.90
58582;DHT22;44361;51.476;5.700;2022-07-23T03:32:33;13.60;99.90
58582;DHT22;44361;51.476;5.700;2022-07-23T03:34:58;13.60;99.90
58582;DHT22;44361;51.476;5.700;2022-07-23T03:37:24;13.50;99.90
58582;DHT22;44361;51.476;5.700;2022-07-23T03:39:50;13.50;99.90
58582;DHT22;44361;51.476;5.700;2022-07-23T03:42:15;13.50;99.90
58582;DHT22;44361;51.476;5.700;2022-07-23T03:44:41;13.50;99.90
58582;DHT22;44361;51.476;5.700;2022-07-23T03:47:06;13.60;99.90
58582;DHT22;44361;51.476;5.700;2022-07-23T03:49:32;13.50;99.90
58582;DHT22;44361;51.476;5.700;2022-07-23T03:51:58;13.50;99.90
58582;DHT22;44361;51.476;5.700;2022-07-23T03:54:24;13.40;99.90
58582;DHT22;44361;51.476;5.700;2022-07-23T03:56:49;13.40;99.90
58582;DHT22;44361;51.476;5.700;2022-07-23T03:59:15;13.30;99.90
58582;DHT22;44361;51.476;5.700;2022-07-23T04:01:40;13.40;99.90
58582;DHT22;44361;51.476;5.700;2022-07-23T04:04:06;13.30;99.90
58582;DHT22;44361;51.476;5.700;2022-07-23T04:06:34;13.30;99.90
58582;DHT22;44361;51.476;5.700;2022-07-23T04:08:59;13.40;99.90
58582;DHT22;44361;51.476;5.700;2022-07-23T04:11:25;13.40;99.90
58582;DHT22;44361;51.476;5.700;2022-07-23T04:13:50;13.40;99.90
58582;DHT22;44361;51.476;5.700;2022-07-23T04:16:16;13.40;99.90
58582;DHT22;44361;51.476;5.700;2022-07-23T04:18:41;13.50;99.90
58582;DHT22;44361;51.476;5.700;2022-07-23T04:21:07;13.50;99.90
58582;DHT22;44361;51.476;5.700;2022-07-23T04:23:32;13.50;99.90
58582;DHT22;44361;51.476;5.700;2022-07-23T04:25:58;13.50;99.90
58582;DHT22;44361;51.476;5.700;2022-07-23T04:28:23;13.50;99.90
58582;DHT22;44361;51.476;5.700;2022-07-23T04:30:49;13.60;99.90
58582;DHT22;44361;51.476;5.700;2022-07-23T04:33:15;13.60;99.90
58582;DHT22;44361;51.476;5.700;2022-07-23T04:35:40;13.70;99.90
58582;DHT22;44361;51.476;5.700;2022-07-23T04:38:06;13.70;99.90
58582;DHT22;44361;51.476;5.700;2022-07-23T04:40:31;13.80;99.90
58582;DHT22;44361;51.476;5.700;2022-07-23T04:42:57;13.80;99.90
58582;DHT22;44361;51.476;5.700;2022-07-23T04:45:23;13.90;99.90
58582;DHT22;44361;51.476;5.700;2022-07-23T04:47:50;13.90;99.90
58582;DHT22;44361;51.476;5.700;2022-07-23T04:50:15;13.90;99.90
58582;DHT22;44361;51.476;5.700;2022-07-23T04:52:44;14.00;99.90
58582;DHT22;44361;51.476;5.700;2022-07-23T04:55:10;14.10;99.90
58582;DHT22;44361;51.476;5.700;2022-07-23T04:57:36;14.20;99.90
58582;DHT22;44361;51.476;5.700;2022-07-23T05:00:03;14.30;99.90
58582;DHT22;44361;51.476;5.700;2022-07-23T05:02:28;14.40;99.90
58582;DHT22;44361;51.476;5.700;2022-07-23T05:04:54;14.40;99.90
58582;DHT22;44361;51.476;5.700;2022-07-23T05:07:19;14.40;99.90
58582;DHT22;44361;51.476;5.700;2022-07-23T05:09:45;14.40;99.90
58582;DHT22;44361;51.476;5.700;2022-07-23T05:12:11;14.60;99.90
58582;DHT22;44361;51.476;5.700;2022-07-23T05:14:36;15.30;99.90
58582;DHT22;44361;51.476;5.700;2022-07-23T05:17:02;16.00;99.90
58582;DHT22;44361;51.476;5.700;2022-07-23T05:19:28;16.70;99.90
58582;DHT22;44361;51.476;5.700;2022-07-23T05:21:53;17.00;99.90
58582;DHT22;44361;51.476;5.700;2022-07-23T05:24:19;17.30;99.90
58582;DHT22;44361;51.476;5.700;2022-07-23T05:26:44;17.50;99.90
58582;DHT22;44361;51.476;5.700;2022-07-23T05:29:10;17.90;99.90
58582;DHT22;44361;51.476;5.700;2022-07-23T05:31:35;17.70;99.90
58582;DHT22;44361;51.476;5.700;2022-07-23T05:34:01;18.00;99.90
58582;DHT22;44361;51.476;5.700;2022-07-23T05:36:26;18.00;99.90
58582;DHT22;44361;51.476;5.700;2022-07-23T05:38:52;18.30;99.90
58582;DHT22;44361;51.476;5.700;2022-07-23T05:41:17;18.50;99.90
58582;DHT22;44361;51.476;5.700;2022-07-23T05:43:43;18.60;99.90
58582;DHT22;44361;51.476;5.700;2022-07-23T05:46:09;19.00;99.90
58582;DHT22;44361;51.476;5.700;2022-07-23T05:48:34;19.00;99.90
58582;DHT22;44361;51.476;5.700;2022-07-23T05:51:00;19.30;99.90
58582;DHT22;44361;51.476;5.700;2022-07-23T05:53:26;19.50;99.90
58582;DHT22;44361;51.476;5.700;2022-07-23T05:55:51;19.20;99.90
58582;DHT22;44361;51.476;5.700;2022-07-23T05:58:17;19.60;99.90
58582;DHT22;44361;51.476;5.700;2022-07-23T06:00:43;19.90;99.90
58582;DHT22;44361;51.476;5.700;2022-07-23T06:03:08;19.80;99.90
58582;DHT22;44361;51.476;5.700;2022-07-23T06:05:34;19.80;99.90
58582;DHT22;44361;51.476;5.700;2022-07-23T06:07:59;19.80;99.90
58582;DHT22;44361;51.476;5.700;2022-07-23T06:10:25;19.80;99.90
58582;DHT22;44361;51.476;5.700;2022-07-23T06:12:51;19.70;99.90
58582;DHT22;44361;51.476;5.700;2022-07-23T06:15:16;19.80;99.90
58582;DHT22;44361;51.476;5.700;2022-07-23T06:17:42;20.10;99.90
58582;DHT22;44361;51.476;5.700;2022-07-23T06:20:09;20.20;99.90
58582;DHT22;44361;51.476;5.700;2022-07-23T06:22:35;20.70;99.90
58582;DHT22;44361;51.476;5.700;2022-07-23T06:25:01;20.80;99.90
58582;DHT22;44361;51.476;5.700;2022-07-23T06:27:27;21.00;99.90
58582;DHT22;44361;51.476;5.700;2022-07-23T06:29:53;20.80;99.90
58582;DHT22;44361;51.476;5.700;2022-07-23T06:32:19;21.10;99.90
58582;DHT22;44361;51.476;5.700;2022-07-23T06:34:44;21.10;99.90
58582;DHT22;44361;51.476;5.700;2022-07-23T06:37:10;21.40;99.90
58582;DHT22;44361;51.476;5.700;2022-07-23T06:39:35;21.30;99.90
58582;DHT22;44361;51.476;5.700;2022-07-23T06:42:01;21.30;99.90
58582;DHT22;44361;51.476;5.700;2022-07-23T06:44:27;21.00;99.90
58582;DHT22;44361;51.476;5.700;2022-07-23T06:46:52;21.10;99.90
58582;DHT22;44361;51.476;5.700;2022-07-23T06:49:18;21.00;99.90
58582;DHT22;44361;51.476;5.700;2022-07-23T06:51:43;20.80;99.90
58582;DHT22;44361;51.476;5.700;2022-07-23T06:54:09;20.90;99.90
58582;DHT22;44361;51.476;5.700;2022-07-23T06:56:35;21.00;99.90
58582;DHT22;44361;51.476;5.700;2022-07-23T06:59:00;20.70;99.90
58582;DHT22;44361;51.476;5.700;2022-07-23T07:01:26;20.50;99.90
58582;DHT22;44361;51.476;5.700;2022-07-23T07:03:51;20.50;99.90
58582;DHT22;44361;51.476;5.700;2022-07-23T07:06:17;20.50;99.90
58582;DHT22;44361;51.476;5.700;2022-07-23T07:08:43;20.40;99.90
58582;DHT22;44361;51.476;5.700;2022-07-23T07:11:09;20.50;99.90
58582;DHT22;44361;51.476;5.700;2022-07-23T07:13:36;20.40;99.90
58582;DHT22;44361;51.476;5.700;2022-07-23T07:16:02;20.50;99.90
58582;DHT22;44361;51.476;5.700;2022-07-23T07:18:27;20.50;99.90
58582;DHT22;44361;51.476;5.700;2022-07-23T07:20:54;20.70;99.90
58582;DHT22;44361;51.476;5.700;2022-07-23T07:23:19;21.00;99.90
58582;DHT22;44361;51.476;5.700;2022-07-23T07:25:46;20.90;99.90
58582;DHT22;44361;51.476;5.700;2022-07-23T07:28:12;21.00;99.90
58582;DHT22;44361;51.476;5.700;2022-07-23T07:30:38;20.80;99.90
58582;DHT22;44361;51.476;5.700;2022-07-23T07:33:03;21.00;99.90
58582;DHT22;44361;51.476;5.700;2022-07-23T07:35:29;21.20;99.90
58582;DHT22;44361;51.476;5.700;2022-07-23T07:37:56;21.00;99.90
58582;DHT22;44361;51.476;5.700;2022-07-23T07:40:22;20.70;99.90
58582;DHT22;44361;51.476;5.700;2022-07-23T07:42:48;20.50;99.90
58582;DHT22;44361;51.476;5.700;2022-07-23T07:45:14;20.10;99.90
58582;DHT22;44361;51.476;5.700;2022-07-23T07:47:41;20.20;99.90
58582;DHT22;44361;51.476;5.700;2022-07-23T07:50:07;20.40;99.90
58582;DHT22;44361;51.476;5.700;2022-07-23T07:52:34;20.80;99.90
58582;DHT22;44361;51.476;5.700;2022-07-23T07:55:02;20.90;99.90
58582;DHT22;44361;51.476;5.700;2022-07-23T07:57:28;21.10;99.90
58582;DHT22;44361;51.476;5.700;2022-07-23T07:59:53;21.20;99.90
58582;DHT22;44361;51.476;5.700;2022-07-23T08:02:19;21.30;99.90
58582;DHT22;44361;51.476;5.700;2022-07-23T08:04:44;21.70;99.90
58582;DHT22;44361;51.476;5.700;2022-07-23T08:07:10;21.70;99.90
58582;DHT22;44361;51.476;5.700;2022-07-23T08:09:35;21.80;99.90
58582;DHT22;44361;51.476;5.700;2022-07-23T08:12:01;21.80;99.90
58582;DHT22;44361;51.476;5.700;2022-07-23T08:14:27;21.30;99.90
58582;DHT22;44361;51.476;5.700;2022-07-23T08:16:53;21.50;99.90
58582;DHT22;44361;51.476;5.700;2022-07-23T08:19:18;21.70;99.90
58582;DHT22;44361;51.476;5.700;2022-07-23T08:21:44;21.60;99.90
58582;DHT22;44361;51.476;5.700;2022-07-23T08:24:09;21.80;99.90
58582;DHT22;44361;51.476;5.700;2022-07-23T08:26:35;21.90;99.60
58582;DHT22;44361;51.476;5.700;2022-07-23T08:29:01;22.00;99.90
58582;DHT22;44361;51.476;5.700;2022-07-23T08:31:26;22.10;99.80
58582;DHT22;44361;51.476;5.700;2022-07-23T08:33:52;22.00;99.90
58582;DHT22;44361;51.476;5.700;2022-07-23T08:36:17;22.30;98.90
58582;DHT22;44361;51.476;5.700;2022-07-23T08:38:43;22.50;99.00
58582;DHT22;44361;51.476;5.700;2022-07-23T08:41:09;22.70;98.80
58582;DHT22;44361;51.476;5.700;2022-07-23T08:43:35;22.90;98.70
58582;DHT22;44361;51.476;5.700;2022-07-23T08:46:02;22.90;97.70
58582;DHT22;44361;51.476;5.700;2022-07-23T08:48:30;22.90;96.90
58582;DHT22;44361;51.476;5.700;2022-07-23T08:50:58;23.10;98.80
58582;DHT22;44361;51.476;5.700;2022-07-23T08:53:25;23.10;96.80
58582;DHT22;44361;51.476;5.700;2022-07-23T08:55:54;22.70;95.50
58582;DHT22;44361;51.476;5.700;2022-07-23T08:58:20;22.90;95.30
58582;DHT22;44361;51.476;5.700;2022-07-23T09:00:46;23.20;97.50
58582;DHT22;44361;51.476;5.700;2022-07-23T09:03:17;23.20;96.00
58582;DHT22;44361;51.476;5.700;2022-07-23T09:05:43;23.20;94.80
58582;DHT22;44361;51.476;5.700;2022-07-23T09:08:14;23.10;95.10
58582;DHT22;44361;51.476;5.700;2022-07-23T09:13:28;23.70;94.40
58582;DHT22;44361;51.476;5.700;2022-07-23T09:15:57;23.40;94.00
58582;DHT22;44361;51.476;5.700;2022-07-23T09:18:35;23.50;94.80
58582;DHT22;44361;51.476;5.700;2022-07-23T09:21:11;23.90;93.20
58582;DHT22;44361;51.476;5.700;2022-07-23T09:23:42;23.80;93.60
58582;DHT22;44361;51.476;5.700;2022-07-23T09:26:18;24.10;94.40
58582;DHT22;44361;51.476;5.700;2022-07-23T09:29:04;23.80;92.70
58582;DHT22;44361;51.476;5.700;2022-07-23T09:31:41;23.30;93.40
58582;DHT22;44361;51.476;5.700;2022-07-23T09:34:18;23.30;93.90
58582;DHT22;44361;51.476;5.700;2022-07-23T09:36:45;23.40;95.40
58582;DHT22;44361;51.476;5.700;2022-07-23T09:39:11;23.30;93.60
58582;DHT22;44361;51.476;5.700;2022-07-23T09:41:42;23.10;95.00
58582;DHT22;44361;51.476;5.700;2022-07-23T09:44:18;23.10;95.10
58582;DHT22;44361;51.476;5.700;2022-07-23T09:46:45;23.30;94.10
58582;DHT22;44361;51.476;5.700;2022-07-23T09:49:22;23.30;94.20
58582;DHT22;44361;51.476;5.700;2022-07-23T09:51:49;23.00;96.00
58582;DHT22;44361;51.476;5.700;2022-07-23T09:54:22;23.10;95.00
58582;DHT22;44361;51.476;5.700;2022-07-23T09:56:49;23.30;94.30
58582;DHT22;44361;51.476;5.700;2022-07-23T09:59:16;23.20;93.90
58582;DHT22;44361;51.476;5.700;2022-07-23T10:01:45;23.10;94.00
58582;DHT22;44361;51.476;5.700;2022-07-23T10:04:11;23.50;94.10
58582;DHT22;44361;51.476;5.700;2022-07-23T10:06:39;23.30;92.30
58582;DHT22;44361;51.476;5.700;2022-07-23T10:09:07;23.20;92.70
58582;DHT22;44361;51.476;5.700;2022-07-23T10:11:34;23.60;94.20
58582;DHT22;44361;51.476;5.700;2022-07-23T10:14:00;23.70;92.50
58582;DHT22;44361;51.476;5.700;2022-07-23T10:16:28;23.20;92.30
58582;DHT22;44361;51.476;5.700;2022-07-23T10:18:55;23.10;91.80
58582;DHT22;44361;51.476;5.700;2022-07-23T10:21:49;23.20;92.60
58582;DHT22;44361;51.476;5.700;2022-07-23T10:27:05;24.00;93.60
58582;DHT22;44361;51.476;5.700;2022-07-23T10:29:47;24.40;93.60
58582;DHT22;44361;51.476;5.700;2022-07-23T10:32:30;24.80;91.20
58582;DHT22;44361;51.476;5.700;2022-07-23T10:35:07;25.10;90.40
58582;DHT22;44361;51.476;5.700;2022-07-23T10:37:39;24.50;89.10
58582;DHT22;44361;51.476;5.700;2022-07-23T10:40:13;24.40;89.10
58582;DHT22;44361;51.476;5.700;2022-07-23T10:42:40;24.30;87.90
58582;DHT22;44361;51.476;5.700;2022-07-23T10:47:51;24.20;88.60
58582;DHT22;44361;51.476;5.700;2022-07-23T10:50:21;24.10;86.60
58582;DHT22;44361;51.476;5.700;2022-07-23T10:58:00;24.90;84.80
58582;DHT22;44361;51.476;5.700;2022-07-23T11:00:33;25.10;86.10
58582;DHT22;44361;51.476;5.700;2022-07-23T11:03:01;25.20;87.30
58582;DHT22;44361;51.476;5.700;2022-07-23T11:05:42;25.50;85.90
58582;DHT22;44361;51.476;5.700;2022-07-23T11:10:42;25.30;87.40
58582;DHT22;44361;51.476;5.700;2022-07-23T11:13:45;25.30;82.10
58582;DHT22;44361;51.476;5.700;2022-07-23T11:16:22;25.00;83.70
58582;DHT22;44361;51.476;5.700;2022-07-23T11:26:45;24.60;87.50
58582;DHT22;44361;51.476;5.700;2022-07-23T11:32:08;24.60;87.80
58582;DHT22;44361;51.476;5.700;2022-07-23T11:34:44;24.60;84.40
58582;DHT22;44361;51.476;5.700;2022-07-23T11:37:35;24.80;89.00
58582;DHT22;44361;51.476;5.700;2022-07-23T11:40:04;24.80;87.10
58582;DHT22;44361;51.476;5.700;2022-07-23T11:42:32;25.00;88.10
58582;DHT22;44361;51.476;5.700;2022-07-23T11:44:57;25.40;88.90
58582;DHT22;44361;51.476;5.700;2022-07-23T11:47:25;25.70;87.10
58582;DHT22;44361;51.476;5.700;2022-07-23T11:49:57;25.80;84.60
58582;DHT22;44361;51.476;5.700;2022-07-23T11:52:24;25.90;84.60
58582;DHT22;44361;51.476;5.700;2022-07-23T11:54:58;25.60;84.10
58582;DHT22;44361;51.476;5.700;2022-07-23T11:57:31;25.30;85.70
58582;DHT22;44361;51.476;5.700;2022-07-23T12:00:06;25.10;86.80
58582;DHT22;44361;51.476;5.700;2022-07-23T12:02:33;25.00;89.30
58582;DHT22;44361;51.476;5.700;2022-07-23T12:04:59;24.80;90.10
58582;DHT22;44361;51.476;5.700;2022-07-23T12:07:46;24.80;88.20
58582;DHT22;44361;51.476;5.700;2022-07-23T12:12:55;25.20;89.50
58582;DHT22;44361;51.476;5.700;2022-07-23T12:15:23;25.40;86.20
58582;DHT22;44361;51.476;5.700;2022-07-23T12:17:50;25.00;87.30
58582;DHT22;44361;51.476;5.700;2022-07-23T12:20:19;25.20;90.00
58582;DHT22;44361;51.476;5.700;2022-07-23T12:22:47;25.30;85.00
58582;DHT22;44361;51.476;5.700;2022-07-23T12:25:14;25.60;85.20
58582;DHT22;44361;51.476;5.700;2022-07-23T12:27:41;25.90;85.90
58582;DHT22;44361;51.476;5.700;2022-07-23T12:30:18;26.20;81.00
58582;DHT22;44361;51.476;5.700;2022-07-23T12:32:45;25.90;80.50
58582;DHT22;44361;51.476;5.700;2022-07-23T12:35:11;25.60;82.40
58582;DHT22;44361;51.476;5.700;2022-07-23T12:37:43;25.70;82.30
58582;DHT22;44361;51.476;5.700;2022-07-23T12:40:20;25.40;82.00
58582;DHT22;44361;51.476;5.700;2022-07-23T12:42:47;25.50;83.40
58582;DHT22;44361;51.476;5.700;2022-07-23T12:45:13;25.60;82.40
58582;DHT22;44361;51.476;5.700;2022-07-23T12:48:01;25.50;82.60
58582;DHT22;44361;51.476;5.700;2022-07-23T12:50:43;25.80;83.30
58582;DHT22;44361;51.476;5.700;2022-07-23T12:53:18;26.10;81.30
58582;DHT22;44361;51.476;5.700;2022-07-23T12:55:45;26.30;82.40
58582;DHT22;44361;51.476;5.700;2022-07-23T12:58:14;26.30;79.60
58582;DHT22;44361;51.476;5.700;2022-07-23T13:03:53;25.70;79.50
58582;DHT22;44361;51.476;5.700;2022-07-23T13:06:10;25.40;80.40
58582;DHT22;44361;51.476;5.700;2022-07-23T13:08:38;25.40;81.50
58582;DHT22;44361;51.476;5.700;2022-07-23T13:11:05;25.70;79.60
58582;DHT22;44361;51.476;5.700;2022-07-23T13:13:33;26.10;81.20
58582;DHT22;44361;51.476;5.700;2022-07-23T13:15:59;26.00;80.00
58582;DHT22;44361;51.476;5.700;2022-07-23T13:18:25;26.30;79.00
58582;DHT22;44361;51.476;5.700;2022-07-23T13:20:51;26.60;79.50
58582;DHT22;44361;51.476;5.700;2022-07-23T13:23:17;26.90;76.50
58582;DHT22;44361;51.476;5.700;2022-07-23T13:25:44;27.00;76.30
58582;DHT22;44361;51.476;5.700;2022-07-23T13:28:10;26.90;74.80
58582;DHT22;44361;51.476;5.700;2022-07-23T13:30:35;26.90;79.20
58582;DHT22;44361;51.476;5.700;2022-07-23T13:33:03;26.80;77.20
58582;DHT22;44361;51.476;5.700;2022-07-23T13:35:28;26.70;77.90
58582;DHT22;44361;51.476;5.700;2022-07-23T13:37:54;26.40;77.70
58582;DHT22;44361;51.476;5.700;2022-07-23T13:40:20;26.20;78.20
58582;DHT22;44361;51.476;5.700;2022-07-23T13:42:46;25.80;80.30
58582;DHT22;44361;51.476;5.700;2022-07-23T13:45:11;25.60;81.20
58582;DHT22;44361;51.476;5.700;2022-07-23T13:47:37;26.00;80.80
58582;DHT22;44361;51.476;5.700;2022-07-23T13:50:04;26.00;79.20
58582;DHT22;44361;51.476;5.700;2022-07-23T13:52:30;26.20;80.10
58582;DHT22;44361;51.476;5.700;2022-07-23T13:55:00;26.30;80.10
58582;DHT22;44361;51.476;5.700;2022-07-23T13:57:26;25.90;78.40
58582;DHT22;44361;51.476;5.700;2022-07-23T13:59:51;25.60;79.40
58582;DHT22;44361;51.476;5.700;2022-07-23T14:02:17;25.70;80.60
58582;DHT22;44361;51.476;5.700;2022-07-23T14:04:43;25.90;80.50
58582;DHT22;44361;51.476;5.700;2022-07-23T14:07:09;26.10;79.50
58582;DHT22;44361;51.476;5.700;2022-07-23T14:09:35;25.90;78.00
58582;DHT22;44361;51.476;5.700;2022-07-23T14:12:01;25.80;79.10
58582;DHT22;44361;51.476;5.700;2022-07-23T14:14:26;25.80;78.50
58582;DHT22;44361;51.476;5.700;2022-07-23T14:16:52;25.80;80.90
58582;DHT22;44361;51.476;5.700;2022-07-23T14:19:17;26.40;78.80
58582;DHT22;44361;51.476;5.700;2022-07-23T14:21:43;26.60;78.90
58582;DHT22;44361;51.476;5.700;2022-07-23T14:24:09;26.70;79.80
58582;DHT22;44361;51.476;5.700;2022-07-23T14:26:34;26.40;78.80
58582;DHT22;44361;51.476;5.700;2022-07-23T14:29:01;26.20;78.80
58582;DHT22;44361;51.476;5.700;2022-07-23T14:31:27;26.40;77.40
58582;DHT22;44361;51.476;5.700;2022-07-23T14:33:52;26.80;78.10
58582;DHT22;44361;51.476;5.700;2022-07-23T14:36:18;27.00;78.80
58582;DHT22;44361;51.476;5.700;2022-07-23T14:38:43;26.70;75.90
58582;DHT22;44361;51.476;5.700;2022-07-23T14:41:09;26.20;76.90
58582;DHT22;44361;51.476;5.700;2022-07-23T14:43:36;26.20;79.00
58582;DHT22;44361;51.476;5.700;2022-07-23T14:46:02;26.70;80.70
58582;DHT22;44361;51.476;5.700;2022-07-23T14:48:27;27.20;76.00
58582;DHT22;44361;51.476;5.700;2022-07-23T14:50:53;26.90;76.00
58582;DHT22;44361;51.476;5.700;2022-07-23T14:53:19;26.90;77.20
58582;DHT22;44361;51.476;5.700;2022-07-23T14:55:44;27.00;76.50
58582;DHT22;44361;51.476;5.700;2022-07-23T14:58:10;27.30;76.20
58582;DHT22;44361;51.476;5.700;2022-07-23T15:00:36;27.40;75.00
58582;DHT22;44361;51.476;5.700;2022-07-23T15:03:01;27.50;76.50
58582;DHT22;44361;51.476;5.700;2022-07-23T15:05:27;28.00;74.40
58582;DHT22;44361;51.476;5.700;2022-07-23T15:07:54;28.50;75.20
58582;DHT22;44361;51.476;5.700;2022-07-23T15:10:20;28.00;75.00
58582;DHT22;44361;51.476;5.700;2022-07-23T15:12:45;27.50;74.70
58582;DHT22;44361;51.476;5.700;2022-07-23T15:15:11;27.10;74.30
58582;DHT22;44361;51.476;5.700;2022-07-23T15:17:36;26.70;75.20
58582;DHT22;44361;51.476;5.700;2022-07-23T15:20:03;26.90;76.90
58582;DHT22;44361;51.476;5.700;2022-07-23T15:22:29;27.40;75.50
58582;DHT22;44361;51.476;5.700;2022-07-23T15:24:54;27.80;74.60
58582;DHT22;44361;51.476;5.700;2022-07-23T15:27:20;27.90;74.10
58582;DHT22;44361;51.476;5.700;2022-07-23T15:29:45;28.10;74.40
58582;DHT22;44361;51.476;5.700;2022-07-23T15:32:11;28.10;73.50
58582;DHT22;44361;51.476;5.700;2022-07-23T15:34:38;28.30;71.30
58582;DHT22;44361;51.476;5.700;2022-07-23T15:37:04;28.40;71.20
58582;DHT22;44361;51.476;5.700;2022-07-23T15:39:33;28.00;74.40
58582;DHT22;44361;51.476;5.700;2022-07-23T15:42:02;28.00;72.60
58582;DHT22;44361;51.476;5.700;2022-07-23T15:44:28;27.70;72.10
58582;DHT22;44361;51.476;5.700;2022-07-23T15:46:54;27.10;73.10
58582;DHT22;44361;51.476;5.700;2022-07-23T15:49:21;26.50;75.30
58582;DHT22;44361;51.476;5.700;2022-07-23T15:51:46;26.60;74.60
58582;DHT22;44361;51.476;5.700;2022-07-23T15:54:12;26.90;74.40
58582;DHT22;44361;51.476;5.700;2022-07-23T15:56:38;27.40;75.70
58582;DHT22;44361;51.476;5.700;2022-07-23T15:59:03;27.70;74.00
58582;DHT22;44361;51.476;5.700;2022-07-23T16:01:29;27.90;73.70